Cristian Ibáñez

Chefscout - Estudiantes
3 Dez 2028
Sonntag
Verarbeitung

Persönlichkeit

Anpassungsfähigkeit (6) Ehrgeiz (2) Kontroverse (11) Loyalität (1) Druck (7) Professionalität (9) Fairness (9) Temperament (5)

Profil

Trainerstil Demokratisch
Lizenz Kontinentale Pro
Entschlossenheit 11
Menschenführung 10
Motivation 5
Disziplin 12
Arbeitszufriedenheit
100%
Ermüdung
0%
Rolle Chefscout
Gehalt 60.1K p/W
Vertrag 14.03.2030

Leistung

Verhalten Gut
Trainingseffektivität
40%
Spielerentwicklung
75%
Verletzungsprävention
55%
Taktische Umsetzung
35%

Letzte Ereignisse

Nahm an einer Scouting-Besprechung teil jetzt
Empfahl ein Transferziel jetzt
Empfahl ein Transferziel jetzt
Empfahl ein Transferziel jetzt
Empfahl ein Transferziel jetzt
Spieler begutachtet jetzt
Spieler begutachtet jetzt
Empfahl ein Transferziel 7T her

Aktuell beobachtet

266
Spieler Verein Status Fähigkeit Vertrauen Beobachtet Zuletzt beobachtet Letzte Stimme
Honest Ahanor Atalanta Aktiv 143 / 144 40% 4 01.12.2028 -
Daniel Barrea Godoy Cruz Verhandlung 123 / 123 70% 1 01.12.2028 -
Maximo Ingravidi Colón Bericht bereit 107 / 112 70% 1 01.12.2028 -
Felipe Karabulut Gimnasia y Tiro Bericht bereit 100 / 109 70% 1 01.12.2028 -
Harrison Armstrong Ipswich Town Aktiv 139 / 140 40% 1 01.12.2028 -
Rodrigo Auzmendi Banfield Aktiv 125 / 120 40% 1 30.11.2028 -
Clemente Montes Santiago Wanderers Aktiv 124 / 122 40% 1 30.11.2028 -
Federico Losas Chacarita Juniors Aktiv 126 / 126 64% 3 / 2m 26.07.2028 Befürworten
Tyrese Campbell Sheffield United Aktiv 135 / 132 40% 7 31.05.2028 -
Luca Williams-Barnett Walsall Aktiv 124 / 132 40% 1 31.05.2028 -
Jayden Danns Bradford City Aktiv 140 / 139 40% 2 30.05.2028 -
Angeliño AS Roma Aktiv 155 / 154 40% 4 30.05.2028 -
Ismaïla Sarr Crystal Palace Aktiv 156 / 149 40% 7 29.05.2028 -
Nathan Broadhead Wrexham Aktiv 133 / 130 40% 1 29.05.2028 -
Christos Mouzakitis Hull City Aktiv 137 / 138 40% 3 28.05.2028 -
Simone Suppa Virtus Verona Aktiv 84 / 88 40% 1 28.05.2028 -
Malik Mothersille Stockport County Aktiv 123 / 119 40% 8 25.05.2028 -
Gianluca Scamacca Atalanta Aktiv 155 / 155 40% 3 25.05.2028 -
Sebastiano Esposito Cagliari Aktiv 148 / 147 40% 4 23.05.2028 -
Zito Luvumbo Cagliari Aktiv 138 / 135 40% 8 22.05.2028 -
Yousef Salech Cardiff City Aktiv 133 / 134 40% 4 21.05.2028 -
Callum O'Hare Sheffield United Aktiv 139 / 135 40% 4 20.05.2028 -
Richard Koné Queens Park Rangers Aktiv 129 / 127 40% 1 20.05.2028 -
Taiwo Awoniyi Middlesbrough Aktiv 145 / 141 40% 9 19.05.2028 -
Jaidon Anthony Derby County Aktiv 144 / 139 40% 1 18.05.2028 -
Ayden Heaven Portsmouth Aktiv 147 / 149 40% 3 17.05.2028 -
Aaron Collins Milton Keynes Dons Aktiv 125 / 122 40% 5 17.05.2028 -
Patrick Agyemang Derby County Aktiv 131 / 128 40% 2 17.05.2028 -
Kelian Le Pironnec Mirandés Aktiv 95 / 104 40% 1 17.05.2028 -
Abubakar Adams Aduana Stars Aktiv 87 / 91 40% 1 17.05.2028 -
Carlos Alcaraz Stoke City Aktiv 151 / 150 40% 4 14.05.2028 -
Dwight McNeil Crystal Palace Aktiv 148 / 140 40% 11 10.05.2028 -
Rodrigo Muniz Fulham Aktiv 145 / 143 40% 4 07.05.2028 -
Róbert Boženík Stoke City Aktiv 133 / 133 40% 1 05.05.2028 -
William Osula Wrexham Aktiv 138 / 138 40% 4 04.05.2028 -
Tyreece Campbell Charlton Athletic Aktiv 127 / 125 40% 5 02.05.2028 -
Patson Daka Leicester City Aktiv 132 / 128 40% 1 29.04.2028 -
Mohamed-Ali Cho Hull City Aktiv 143 / 143 40% 7 28.04.2028 -
Georginio Rutter Brighton Aktiv 154 / 156 40% 9 27.04.2028 -
Brandon Thomas-Asante Blackpool Aktiv 128 / 124 40% 4 26.04.2028 -
Giovanni Leoni Lincoln City Aktiv 142 / 144 40% 2 25.04.2028 -
Kasey McAteer Barnsley Aktiv 139 / 132 40% 1 24.04.2028 -
Thiago Brentford Aktiv 152 / 151 40% 6 19.04.2028 -
Joelinton Everton Aktiv 162 / 161 40% 4 17.04.2028 -
Quilindschy Hartman Burnley Aktiv 151 / 152 40% 3 17.04.2028 -
Camillo Tavernelli Arezzo Aktiv 121 / 119 40% 1 17.04.2028 -
Eddie Nketiah Crystal Palace Aktiv 145 / 146 40% 2 14.04.2028 -
Fábio Carvalho Brentford Aktiv 147 / 149 40% 6 11.04.2028 -
Malick Fofana Sunderland Aktiv 153 / 155 40% 2 06.04.2028 -
Tammy Abraham Aston Villa Aktiv 149 / 148 40% 3 02.04.2028 -
Jaden Philogene Wolverhampton Aktiv 147 / 144 40% 2 30.03.2028 -
Gustavo Albarracín Alavés Aktiv 118 / 121 40% 1 28.03.2028 -
Evann Guessand Aston Villa Aktiv 152 / 148 40% 1 09.03.2028 -
Lorenzo Colombo Genoa Aktiv 143 / 144 40% 2 06.03.2028 -
Samuel Edozie Southampton Aktiv 133 / 129 40% 1 04.03.2028 -
Colin Guske Orlando City Aktiv 95 / 98 40% 3 15.02.2028 -
Matvey Bardachev Zenit Aktiv 109 / 118 40% 3 06.02.2028 -
Daniel Banjaqui Benfica Aktiv 121 / 127 40% 2 06.02.2028 -
Esquerdinha Notts County Aktiv 119 / 126 40% 2 02.02.2028 -
Tyler Fletcher Rotherham United Aktiv 111 / 118 40% 2 01.02.2028 -
Andrey Ivlev Nizhniy Novgorod Aktiv 113 / 116 40% 1 01.02.2028 -
Charlie Gray Fleetwood Town Aktiv 99 / 104 40% 1 29.01.2028 -
Riquelme Thompson-Jones Accrington Stanley Aktiv 111 / 121 40% 1 29.01.2028 -
Trey Nyoni Rotherham United Aktiv 138 / 144 40% 2 28.01.2028 -
Facundo Balatti Penarol Aktiv 103 / 111 40% 8 27.01.2028 -
Ivan Borges Defensores Aktiv 84 / 89 40% 2 25.01.2028 -
Diego Vargas Universidad de Concepcion Aktiv 93 / 97 40% 4 22.01.2028 -
Josh Nichols Oldham Athletic Aktiv 122 / 122 40% 3 22.01.2028 -
Matías Canedo Rampla Juniors Aktiv 86 / 88 40% 1 20.01.2028 -
Lucas Camejo River Plate Aktiv 86 / 92 40% 4 18.01.2028 -
Matias Siltanen Malmo FF Aktiv 126 / 129 40% 4 17.01.2028 -
Yury Oyarzo Racing Aktiv 91 / 99 40% 2 16.01.2028 -
Victor Hernandez Santa Fe Aktiv 121 / 125 40% 11 13.01.2028 -
Juan Camilo Córdoba Deportivo Pereira Aktiv 87 / 94 40% 8 09.01.2028 -
Ignacio Fernández Boston River Aktiv 91 / 96 40% 4 07.01.2028 -
Caleb Yirenkyi Coventry City Aktiv 140 / 145 40% 1 07.01.2028 -
Vanja Milinković-Savić Atalanta Aktiv 154 / 152 40% 1 03.12.2027 -
Murphy Cooper Plymouth Argyle Aktiv 122 / 126 40% 1 03.12.2027 -
Christos Mandas Lazio Aktiv 150 / 146 40% 1 03.12.2027 -
Alex Luna Instituto Aktiv 131 / 135 93% 1 02.12.2027 Befürworten
Alex Verón Vélez Aktiv 112 / 126 93% 1 01.12.2027 Befürworten
James Trafford Leeds United Aktiv 153 / 156 40% 4 30.11.2027 -
Caoimhin Kelleher Brentford Aktiv 157 / 158 40% 1 30.11.2027 -
Matías Machado Racing Aktiv 113 / 111 40% 1 29.11.2027 -
Camilo Alessandria Godoy Cruz Aktiv 114 / 114 40% 1 28.11.2027 -
Luis Olivera Defensores Unidos Aktiv 112 / 109 40% 2 27.11.2027 -
Maico Quiroz Güemes Aktiv 113 / 111 40% 2 27.11.2027 -
Misael Tarón Ferro Carril Oeste Aktiv 114 / 110 40% 2 26.11.2027 -
Jherson Mosquera Newell's Old Boys Aktiv 126 / 126 40% 2 25.11.2027 -
Nazareno Roselli Defensa y Justicia Aktiv 114 / 119 40% 1 23.11.2027 -
Ignacio Abraham Banfield Aktiv 122 / 124 40% 1 23.11.2027 -
Ismaël Bennacer Boca Juniors Aktiv 146 / 143 40% 1 22.11.2027 -
Mauricio Guzmán Tristán Suárez Aktiv 116 / 114 40% 1 21.11.2027 -
Nicolás Mosca Atlanta Aktiv 111 / 113 40% 1 21.11.2027 -
Tiago Pucciarelli IF Elfsborg Aktiv 102 / 110 40% 2 20.11.2027 -
Dylan Cabral Arsenal Aktiv 100 / 107 40% 1 20.11.2027 -
Bruno Leyes Godoy Cruz Aktiv 127 / 126 40% 4 18.11.2027 -
Santiago Kubiszyn Morón Aktiv 116 / 118 40% 1 18.11.2027 -
Yeferson Rodallega Envigado Aktiv 116 / 114 40% 6 17.11.2027 -
Marco Di Cesare Racing Club Aktiv 129 / 129 40% 1 16.11.2027 -
Azizbek To'lqinbekov Bunyodkor Aktiv 100 / 108 40% 4 15.11.2027 -
Gideon Manaseh Ikorodu City Aktiv 93 / 97 40% 2 15.11.2027 -
Alan Valdelamar Independiente Medellin Aktiv 92 / 96 40% 2 15.11.2027 -
Pedro Souto Temperley Aktiv 117 / 119 40% 2 12.11.2027 -
Marcio Gómez Racing Aktiv 111 / 111 40% 1 10.11.2027 -
Lucas Souto Defensa y Justicia Aktiv 127 / 128 40% 1 09.11.2027 -
Felipe Peña Biafore Lanús Aktiv 130 / 132 40% 1 08.11.2027 -
Fernando Bersano Madryn Aktiv 118 / 116 40% 2 07.11.2027 -
Walter Juárez Güemes Aktiv 110 / 107 40% 3 06.11.2027 -
Franco Díaz Temperley Aktiv 125 / 119 40% 1 05.11.2027 -
Nazareno Colombo Racing Club Aktiv 127 / 123 40% 1 03.11.2027 -
Franco Camargo Gimnasia y Esgrima Aktiv 112 / 113 40% 2 31.10.2027 -
Nicolás Fernández Maipú Aktiv 108 / 109 40% 1 31.10.2027 -
Gabriel Díaz Patronato Verhandlung 113 / 116 40% 1 28.10.2027 -
Braian Aranda Agropecuario Argentino Aktiv 115 / 113 40% 1 26.10.2027 -
Manuel Guillén Argentinos Juniors Aktiv 118 / 121 40% 1 25.10.2027 -
Tomás Ferreyra Defensores Unidos Aktiv 112 / 115 40% 1 22.10.2027 -
Hosea Michael Remo Stars Aktiv 90 / 94 40% 4 19.10.2027 -
Adrian Skogmar Malmo FF Aktiv 116 / 118 40% 2 19.10.2027 -
Idris Ajiya Nasarawa United Aktiv 86 / 89 40% 2 19.10.2027 -
Onyeuche Ujunwa Ikorodu City Aktiv 86 / 90 40% 3 11.10.2027 -
Joel Ezra Enyimba Aktiv 94 / 97 40% 6 11.10.2027 -
Diosmer Pacheco Mineros de Guayana Aktiv 88 / 91 40% 1 11.10.2027 -
Jeremías Merlo Gimnasia La Plata Aktiv 124 / 124 40% 1 09.10.2027 -
Valentino Acuña Newell's Old Boys Aktiv 110 / 119 40% 1 09.10.2027 -
Hian Rincón Once Caldas Aktiv 89 / 97 40% 1 06.10.2027 -
Mohamed Bolivar Barranquilla Aktiv 88 / 93 40% 4 05.10.2027 -
Mohamed Moussa Koïta Mathare United Aktiv 97 / 99 40% 2 03.10.2027 -
Chibueze Oputa Rangers International Aktiv 89 / 91 40% 1 02.10.2027 -
Eliás Montiel Borussia Dortmund Aktiv 132 / 145 40% 3 30.09.2027 -
Juan Diego Perdomo Depor Aktiv 86 / 89 40% 3 28.09.2027 -
Ángel Aguayo Sol de America Aktiv 91 / 98 40% 2 27.09.2027 -
Halam Loboa Sevilla Aktiv 122 / 131 40% 1 22.09.2027 -
Tiago Gordillo San Miguel Aktiv 88 / 95 40% 1 19.09.2027 -
Iván Valdez Independiente Rivadavia Aktiv 110 / 110 30% 1 / 1m 21.07.2027 -
Elia Caprile Cagliari Aktiv 146 / 145 40% 3 20.07.2027 -
Emiliano González Almagro Aktiv 122 / 115 40% 1 20.07.2027 -
Maílson Al-Taawoun Aktiv 130 / 128 40% 6 05.07.2027 -
Denis Adamov Zenit Aktiv 128 / 127 40% 5 03.06.2027 -
Mile Svilar AS Roma Aktiv 164 / 163 40% 3 03.06.2027 -
Riccardo Gagno Vicenza Aktiv 125 / 122 40% 4 29.05.2027 -
Trevoh Chalobah Como Aktiv 152 / 154 40% 3 28.05.2027 -
Jonathan Klinsmann Cesena Aktiv 130 / 127 40% 1 28.05.2027 -
Adrian Šemper Al-Fateh Aktiv 130 / 136 40% 2 26.05.2027 -
Cristian Rivero Real Sociedad Aktiv 129 / 124 40% 2 26.05.2027 -
Ezequiel Centurión River Plate Aktiv 126 / 123 40% 7 24.05.2027 -
Curtis Jones Inter Aktiv 159 / 159 40% 6 20.05.2027 -
Nicolò Fagioli Fiorentina Aktiv 140 / 139 40% 1 20.05.2027 -
Lucas Da Cunha Como Aktiv 146 / 140 40% 3 16.05.2027 -
Mitchel Bakker Modena Aktiv 132 / 127 40% 1 15.05.2027 -
Evan N'Dicka AS Roma Aktiv 157 / 158 40% 5 13.05.2027 -
Arthur Atta Fiorentina Aktiv 142 / 144 40% 2 11.05.2027 -
Diego Gómez Brighton Aktiv 144 / 143 40% 3 10.05.2027 -
Billy Gilmour Napoli Aktiv 148 / 143 40% 3 10.05.2027 -
Nuno Tavares Lazio Aktiv 145 / 148 40% 2 02.05.2027 -
Manu Koné AS Roma Aktiv 165 / 161 40% 8 30.04.2027 -
Raoul Bellanova Atalanta Aktiv 152 / 147 40% 5 30.04.2027 -
Danilo Veiga Lecce Aktiv 128 / 125 40% 1 27.04.2027 -
Lewis Ferguson Bologna Aktiv 144 / 143 40% 3 22.04.2027 -
Nicolò Rovella Lazio Aktiv 151 / 156 40% 2 22.04.2027 -
Juan Mendoza Güemes Aktiv 107 / 107 42% 1 / 1m 21.04.2027 -
Cristian Esparza Temperley Aktiv 110 / 110 30% 1 / 1m 21.04.2027 -
Bautista González Defensores Aktiv 92 / 97 30% 1 / 1m 21.04.2027 -
Leandro Ciccolini Gimnasia y Esgrima Aktiv 123 / 123 30% 1 / 1m 21.04.2027 -
Jordan Zemura Udinese Aktiv 134 / 135 40% 1 19.04.2027 -
Adrián Bernabé Parma Aktiv 139 / 134 40% 1 07.04.2027 -
Alessandro Buongiorno Cagliari Aktiv 158 / 151 40% 2 02.04.2027 -
Mehdi Dorval Catanzaro Aktiv 133 / 133 40% 1 30.03.2027 -
Enrico Delprato Parma Aktiv 137 / 134 40% 1 29.03.2027 -
Brooke Norton-Cuffy Hull City Aktiv 136 / 132 40% 10 27.03.2027 -
Bosun Lawal Stoke City Aktiv 128 / 131 40% 3 27.03.2027 -
Welington Southampton Aktiv 129 / 133 40% 7 25.03.2027 -
Amadou Onana Aston Villa Aktiv 158 / 159 40% 5 25.03.2027 -
Lewis Hall Newcastle United Aktiv 149 / 156 40% 1 25.03.2027 -
Florentino Luís Ipswich Town Aktiv 139 / 144 40% 8 24.03.2027 -
Max Johnston Derby County Aktiv 131 / 129 40% 9 24.03.2027 -
Dennis Cirkin Queens Park Rangers Aktiv 127 / 133 40% 8 23.03.2027 -
Quinten Timber Crystal Palace Aktiv 148 / 147 40% 2 22.03.2027 -
Tino Livramento Newcastle United Aktiv 155 / 159 40% 3 21.03.2027 -
Aaron Hickey Brentford Aktiv 143 / 142 40% 1 21.03.2027 -
Yehor Yarmoliuk Brentford Aktiv 150 / 145 40% 4 19.03.2027 -
Max Bird Birmingham Aktiv 132 / 134 40% 6 17.03.2027 -
Adam Wharton Crystal Palace Aktiv 151 / 150 40% 2 17.03.2027 -
Ryan Sessegnon Fulham Aktiv 144 / 142 40% 2 14.03.2027 -
Jake O'Brien Everton Aktiv 143 / 146 40% 4 14.03.2027 -
Sven Botman Newcastle United Aktiv 157 / 162 40% 5 12.03.2027 -
Óscar Mingueza Crystal Palace Aktiv 147 / 143 40% 3 11.03.2027 -
Milan van Ewijk Coventry City Aktiv 131 / 135 40% 1 07.03.2027 -
Jarrad Branthwaite Everton Aktiv 155 / 149 40% 3 06.03.2027 -
Alex Scott Bournemouth Aktiv 147 / 151 40% 3 05.03.2027 -
Tariq Lamptey Queens Park Rangers Aktiv 133 / 133 40% 3 04.03.2027 -
Oliver Skipp Leicester City Aktiv 134 / 132 40% 8 03.03.2027 -
James Garner Everton Aktiv 151 / 148 40% 2 01.03.2027 -
André Wolverhampton Aktiv 143 / 148 40% 1 28.02.2027 -
Luke McNally Bristol City Aktiv 132 / 129 40% 6 26.02.2027 -
Dara O'Shea Ipswich Town Aktiv 138 / 135 40% 7 23.02.2027 -
Jacob Greaves Ipswich Town Aktiv 136 / 136 40% 5 22.02.2027 -
Habib Diarra Sunderland Aktiv 136 / 134 40% 1 22.02.2027 -
Pedro Porro Tottenham Aktiv 149 / 146 40% 4 20.02.2027 -
Boubacar Kamara Aston Villa Aktiv 168 / 159 40% 3 18.02.2027 -
Ian Maatsen Aston Villa Aktiv 153 / 148 40% 1 15.02.2027 -
Adam Randell Bristol City Aktiv 129 / 123 40% 2 31.01.2027 -
Anel Ahmedhodžić Burnley Aktiv 139 / 135 40% 1 31.01.2027 -
Kristoffer Lund Birmingham Aktiv 124 / 134 40% 2 29.01.2027 -
Aidan Morris Middlesbrough Aktiv 133 / 137 40% 2 29.01.2027 -
Gabriel Gudmundsson Leeds United Aktiv 145 / 143 40% 3 25.01.2027 -
Harry Clarke Preston Aktiv 130 / 119 40% 4 21.01.2027 -
Nicolas Madsen Queens Park Rangers Aktiv 133 / 133 40% 2 19.01.2027 -
Álex Centelles Levski Aktiv 126 / 131 40% 1 16.01.2027 -
Japhet Tanganga Sheffield United Aktiv 131 / 134 40% 1 11.01.2027 -
Toby Collyer West Bromwich Albion Aktiv 132 / 129 40% 1 07.01.2027 -
Teden Mengi Luton Town Aktiv 125 / 125 40% 2 06.01.2027 -
Gustavo Mantuan Zenit Aktiv 138 / 142 40% 1 06.01.2027 -
Toti Wolverhampton Aktiv 133 / 126 40% 2 02.01.2027 -
Alfie Doughty Millwall Aktiv 129 / 127 40% 2 02.01.2027 -
Manu Morlanes Mallorca Aktiv 135 / 132 40% 5 31.12.2026 -
Valentín Gómez Betis Aktiv 140 / 134 40% 2 27.12.2026 -
Jacques Ekomié Wrexham Aktiv 125 / 128 40% 1 21.12.2026 -
Alexey Miranchuk Atlanta United FC Aktiv 144 / 140 40% 3 02.12.2026 -
Che Adams Torino Aktiv 138 / 136 40% 2 02.12.2026 -
Luka Jović CFR Cluj Aktiv 133 / 139 40% 2 02.12.2026 -
Luiz Henrique AS Roma Aktiv 142 / 143 68% 1 01.12.2026 Befürworten
Zion Suzuki Aston Villa Aktiv 136 / 142 40% 5 26.11.2026 -
Balázs Tóth Blackburn Rovers Aktiv 124 / 122 40% 1 24.11.2026 -
Dean Henderson Crystal Palace Aktiv 144 / 147 40% 4 23.11.2026 -
Steven Bergwijn Al-Ittihad Aktiv 145 / 149 40% 4 23.11.2026 -
Diego Enríquez Sporting Cristal Aktiv 128 / 133 40% 5 23.11.2026 -
Robin Roefs Sunderland Aktiv 140 / 148 40% 3 20.11.2026 -
Grégoire Coudert Burnley Aktiv 131 / 126 40% 3 20.11.2026 -
Alex Meret Napoli Aktiv 151 / 159 40% 3 19.11.2026 -
Petar Musa FC Dallas Aktiv 136 / 140 40% 2 16.11.2026 -
Yoane Wissa Newcastle United Aktiv 144 / 140 40% 1 13.11.2026 -
Brian Brobbey Sunderland Aktiv 139 / 148 40% 2 10.11.2026 -
Anthony Patterson Wrexham Aktiv 128 / 122 40% 3 09.11.2026 -
Dayne St. Clair Inter Miami CF Aktiv 127 / 129 40% 8 07.11.2026 -
Patrick Schulte Columbus Crew Aktiv 123 / 126 40% 1 06.11.2026 -
Radek Vítek Middlesbrough Aktiv 136 / 133 40% 3 28.10.2026 -
Drake Callender Minnesota United FC Aktiv 125 / 127 40% 2 23.10.2026 -
Callum Brittain Middlesbrough Aktiv 126 / 125 40% 1 21.10.2026 -
Matthew Targett Hull City Aktiv 132 / 131 40% 1 21.10.2026 -
Alexander Nübel Besiktas Aktiv 144 / 140 40% 5 19.10.2026 -
Christian Walton Ipswich Town Aktiv 129 / 128 40% 1 18.10.2026 -
Carlos Acevedo Santos Laguna Aktiv 131 / 126 40% 6 08.10.2026 -
Marko Ilić KV Kortrijk Aktiv 124 / 118 40% 5 07.10.2026 -
Carlos Moreno Pachuca Aktiv 134 / 133 40% 2 06.10.2026 -
Leo Ceara Kashima Antlers Aktiv 135 / 131 40% 2 05.10.2026 -
Keisuke Osako Sanfrecce Hiroshima Aktiv 135 / 127 40% 1 03.10.2026 -
Tomoki Hayakawa Kashima Antlers Aktiv 138 / 146 40% 1 03.10.2026 -
Ollie Watkins Al-Hilal Aktiv 146 / 143 40% 5 01.10.2026 -
Kazuki Fujita Avispa Fukuoka Aktiv 127 / 130 40% 3 26.09.2026 -
Patrick Pentz Brondby Aktiv 125 / 119 40% 2 23.09.2026 -
Uğurcan Çakır Galatasaray Aktiv 140 / 145 40% 5 21.09.2026 -
Martin Jedlička Banik Ostrava Aktiv 129 / 137 40% 1 13.09.2026 -
Dmytro Riznyk Racing Genk Aktiv 133 / 132 40% 4 01.09.2026 -
Willer Ditta Cruz Azul Aktiv 138 / 138 40% 3 30.08.2026 -
Nathan Aké Fenerbahce Aktiv 148 / 158 40% 1 30.08.2026 -
Teboho Mokoena Mamelodi Sundowns Aktiv 136 / 124 40% 1 30.08.2026 -
Ignacio Arce Deportivo Riestra Aktiv 134 / 134 30% 1 / 1m 26.08.2026 -
Lautaro Bursich Talleres Aktiv 101 / 104 30% 1 / 1m 19.08.2026 -
Alexis González Los Andes Aktiv 80 / 85 30% 1 / 1m 19.08.2026 -
Carlos Álvarez Club America Aktiv 134 / 135 40% 1 17.08.2026 -
Roberto Fernández Braga Aktiv 140 / 136 40% 1 17.08.2026 -
Luis Romo Guadalajara Aktiv 140 / 134 40% 1 08.08.2026 -
Carlos Rodríguez Cruz Azul Aktiv 135 / 139 40% 1 07.08.2026 -
Kenny Tete Fulham Aktiv 141 / 143 40% 1 03.08.2026 -
Nicolò Savona Nottingham Forest Aktiv 136 / 144 40% 1 03.08.2026 -